createdAt,value
2018-06-21T07:10:52.770Z,2.07
2018-06-21T07:13:20.854Z,2.43
2018-06-21T07:15:50.122Z,2.17
2018-06-21T07:18:20.834Z,2.20
2018-06-21T07:20:48.384Z,2.50
2018-06-21T07:23:15.817Z,2.00
2018-06-21T07:25:43.310Z,2.20
2018-06-21T07:28:10.789Z,2.23
2018-06-21T07:30:41.175Z,2.20
2018-06-21T07:33:08.686Z,2.57
2018-06-21T07:35:36.172Z,2.63
2018-06-21T07:38:03.705Z,2.23
2018-06-21T07:40:31.195Z,1.97
2018-06-21T07:42:58.739Z,2.00
2018-06-21T07:45:28.260Z,2.43
2018-06-21T07:47:55.723Z,2.23
2018-06-21T07:50:23.242Z,2.40
2018-06-21T07:52:50.725Z,2.93
2018-06-21T07:55:18.247Z,2.00
2018-06-21T07:57:45.726Z,2.27
2018-06-21T08:00:14.962Z,2.30
2018-06-21T08:02:42.423Z,3.07
2018-06-21T08:05:09.941Z,2.70
2018-06-21T08:07:37.578Z,2.30
2018-06-21T08:10:05.084Z,2.50
2018-06-21T08:12:32.623Z,2.60
2018-06-21T08:15:00.119Z,2.00
2018-06-21T08:17:27.650Z,2.73
2018-06-21T08:19:55.189Z,2.53
2018-06-21T08:22:22.678Z,2.90
2018-06-21T08:24:50.198Z,3.20
2018-06-21T08:27:17.690Z,3.30
2018-06-21T08:29:45.181Z,3.17
2018-06-21T08:32:12.697Z,3.10
2018-06-21T08:34:40.225Z,2.87
2018-06-21T08:37:07.742Z,3.40
2018-06-21T08:39:35.334Z,3.17
2018-06-21T08:42:02.865Z,3.30
2018-06-21T08:44:30.374Z,3.43
2018-06-21T08:46:57.874Z,3.00
2018-06-21T08:49:25.390Z,2.77
2018-06-21T08:51:52.883Z,3.37
2018-06-21T08:54:20.418Z,2.50
2018-06-21T08:56:47.942Z,3.87
2018-06-21T08:59:15.915Z,3.00
2018-06-21T09:01:43.470Z,3.43
2018-06-21T09:04:10.960Z,3.10
2018-06-21T09:06:38.448Z,2.80
2018-06-21T09:09:07.599Z,3.40
2018-06-21T09:11:35.132Z,3.30
2018-06-21T09:14:02.666Z,3.53
2018-06-21T09:16:30.257Z,3.30
2018-06-21T09:18:58.615Z,3.17
2018-06-21T09:21:27.344Z,3.20
2018-06-21T09:23:54.999Z,4.00
2018-06-21T09:26:22.479Z,3.33
2018-06-21T09:28:50.006Z,3.20
2018-06-21T09:31:18.214Z,3.40
2018-06-21T09:33:45.746Z,4.13
2018-06-21T09:36:13.566Z,3.67
2018-06-21T09:38:46.705Z,4.10
2018-06-21T09:41:19.887Z,3.80
2018-06-21T09:44:03.829Z,4.87
2018-06-21T09:46:33.870Z,4.00
2018-06-21T09:48:53.848Z,4.00
2018-06-21T09:51:21.462Z,4.20
2018-06-21T09:53:49.081Z,4.37
2018-06-21T09:56:16.574Z,3.90
2018-06-21T09:58:44.347Z,4.17
2018-06-21T10:01:11.866Z,4.00
2018-06-21T10:03:39.362Z,3.80
2018-06-21T10:06:06.878Z,4.23
2018-06-21T10:08:34.469Z,4.00
2018-06-21T10:11:01.975Z,4.27
2018-06-21T10:13:29.463Z,3.30
2018-06-21T10:15:57.055Z,3.47
2018-06-21T10:18:24.594Z,3.60
2018-06-21T10:20:52.099Z,3.93
2018-06-21T10:23:19.615Z,4.07
2018-06-21T10:25:47.133Z,3.87
2018-06-21T10:28:17.205Z,3.27
2018-06-21T10:30:44.707Z,4.00
2018-06-21T10:33:12.267Z,3.70
2018-06-21T10:35:39.770Z,3.73
2018-06-21T10:38:07.259Z,3.70
2018-06-21T10:40:34.689Z,4.37
2018-06-21T10:43:02.186Z,3.70
2018-06-21T10:45:29.694Z,3.33
2018-06-21T10:47:57.174Z,3.67
2018-06-21T10:50:24.667Z,3.60
2018-06-21T10:52:52.134Z,3.87
2018-06-21T10:55:19.672Z,3.53
2018-06-21T10:57:47.142Z,4.53
2018-06-21T11:00:14.685Z,4.10
2018-06-21T11:02:42.202Z,4.10
2018-06-21T11:05:09.710Z,4.20
2018-06-21T11:07:37.360Z,3.80
2018-06-21T11:10:04.944Z,4.00
2018-06-21T11:12:32.459Z,4.10
2018-06-21T11:14:59.988Z,4.00
2018-06-21T11:17:27.490Z,3.90
2018-06-21T11:19:55.971Z,4.40
2018-06-21T11:22:23.410Z,4.23
2018-06-21T11:24:51.344Z,3.90
2018-06-21T11:27:18.815Z,4.27
2018-06-21T11:29:46.339Z,3.50
2018-06-21T11:32:13.883Z,4.13
2018-06-21T11:34:41.430Z,3.90
2018-06-21T11:37:08.929Z,3.73
2018-06-21T11:39:36.490Z,3.70
2018-06-21T11:42:03.992Z,4.30
2018-06-21T11:44:31.502Z,3.90
2018-06-21T11:46:59.075Z,3.77
2018-06-21T11:49:26.559Z,3.90
2018-06-21T11:51:54.054Z,3.57
2018-06-21T11:54:21.605Z,3.30
2018-06-21T11:56:49.138Z,3.50
2018-06-21T11:59:16.738Z,3.33
2018-06-21T12:01:44.357Z,2.80
2018-06-21T12:04:11.830Z,3.47
2018-06-21T12:06:39.321Z,3.00
2018-06-21T12:09:08.534Z,3.30
2018-06-21T12:11:36.020Z,2.90
2018-06-21T12:14:03.637Z,3.00
2018-06-21T12:16:31.186Z,3.20
2018-06-21T12:18:58.738Z,3.67
2018-06-21T12:21:26.166Z,3.73
2018-06-21T12:23:53.687Z,3.30
2018-06-21T12:26:21.214Z,3.20
2018-06-21T12:28:48.717Z,2.87
2018-06-21T12:31:16.214Z,3.30
2018-06-21T12:33:43.726Z,3.50
2018-06-21T12:36:11.223Z,3.03
2018-06-21T12:38:38.714Z,3.30
2018-06-21T12:41:06.274Z,3.53
2018-06-21T12:43:33.803Z,2.70
2018-06-21T12:46:01.301Z,3.40
2018-06-21T12:48:28.825Z,3.33
2018-06-21T12:50:56.336Z,2.87
2018-06-21T12:53:23.907Z,3.10
2018-06-21T12:55:52.118Z,3.60
2018-06-21T12:58:20.294Z,2.23
2018-06-21T13:00:47.754Z,3.10
2018-06-21T13:03:15.165Z,3.23
2018-06-21T13:05:42.634Z,2.50
2018-06-21T13:08:10.299Z,2.63
2018-06-21T13:12:22.558Z,2.50
2018-06-21T13:14:51.068Z,2.17
2018-06-21T13:17:19.062Z,2.73
2018-06-21T13:19:46.791Z,2.10
2018-06-21T13:22:14.290Z,2.37
2018-06-21T13:24:41.922Z,2.43
2018-06-21T13:27:09.459Z,2.33
2018-06-21T13:29:37.918Z,2.17
2018-06-21T13:32:05.410Z,2.40
2018-06-21T13:34:33.023Z,2.13
2018-06-21T13:37:01.402Z,2.00
2018-06-21T13:39:28.955Z,2.00
2018-06-21T13:41:56.449Z,1.93
2018-06-21T13:44:23.958Z,1.90
2018-06-21T13:46:51.592Z,2.07
2018-06-21T13:49:19.122Z,1.70
2018-06-21T13:51:46.606Z,2.10
2018-06-21T13:54:14.119Z,2.17
2018-06-21T13:56:41.649Z,2.70
2018-06-21T13:59:09.185Z,2.93
2018-06-21T14:01:36.734Z,3.00
2018-06-21T14:04:04.249Z,2.93
2018-06-21T14:06:31.777Z,2.30
2018-06-21T14:08:59.297Z,2.83
2018-06-21T14:11:26.859Z,2.20
2018-06-21T14:13:56.563Z,2.50
2018-06-21T14:16:24.244Z,2.77
2018-06-21T14:18:51.801Z,2.80
2018-06-21T14:21:19.347Z,2.57
2018-06-21T14:23:47.757Z,2.57
2018-06-21T14:26:15.974Z,2.70
2018-06-21T14:28:43.503Z,2.60
2018-06-21T14:31:10.999Z,2.23
2018-06-21T14:33:38.531Z,2.40
2018-06-21T14:36:06.015Z,2.67
2018-06-21T14:38:36.337Z,2.27
2018-06-21T14:41:14.647Z,2.53
2018-06-21T14:43:43.280Z,2.60
2018-06-21T14:46:11.546Z,2.87
2018-06-21T14:48:39.061Z,2.60
2018-06-21T14:51:06.603Z,2.53
2018-06-21T14:53:34.150Z,2.70
2018-06-21T14:56:01.716Z,2.60
2018-06-21T14:58:29.203Z,3.13
2018-06-21T15:00:57.902Z,2.73
2018-06-21T15:03:25.407Z,2.50
2018-06-21T15:05:52.939Z,2.63
2018-06-21T15:08:20.514Z,2.53
2018-06-21T15:10:48.040Z,2.60
2018-06-21T15:13:15.559Z,2.57
2018-06-21T15:15:43.045Z,2.80
2018-06-21T15:18:10.545Z,2.50
2018-06-21T15:20:38.098Z,2.60
2018-06-21T15:23:05.904Z,2.80
2018-06-21T15:25:33.432Z,2.77
2018-06-21T15:28:00.975Z,2.40
2018-06-21T15:30:28.554Z,2.63
2018-06-21T15:32:56.086Z,2.40
2018-06-21T15:35:23.663Z,2.90
2018-06-21T15:37:51.193Z,2.27
2018-06-21T15:40:18.728Z,2.50
2018-06-21T15:42:46.255Z,2.43
2018-06-21T15:45:14.298Z,2.10
2018-06-21T15:47:41.778Z,2.50
2018-06-21T15:50:09.316Z,2.33
2018-06-21T15:52:36.910Z,2.20
2018-06-21T15:55:04.480Z,2.70
2018-06-21T15:57:32.071Z,2.20
2018-06-21T15:59:59.572Z,2.23
2018-06-21T16:02:27.154Z,2.50
2018-06-21T16:04:54.735Z,2.40
2018-06-21T16:07:22.330Z,2.73
2018-06-21T16:09:49.839Z,2.77
2018-06-21T16:12:17.380Z,2.33
2018-06-21T16:14:44.946Z,2.40
2018-06-21T16:17:12.473Z,2.20
2018-06-21T16:19:39.995Z,2.57
2018-06-21T16:22:07.497Z,2.60
2018-06-21T16:24:34.998Z,2.33
2018-06-21T16:27:02.559Z,2.20
2018-06-21T16:29:30.094Z,2.50
2018-06-21T16:31:57.633Z,2.77
2018-06-21T16:34:25.147Z,2.50
2018-06-21T16:36:52.631Z,2.60
2018-06-21T16:39:20.203Z,2.73
2018-06-21T16:41:47.722Z,2.90
2018-06-21T16:44:15.255Z,3.07
2018-06-21T16:46:42.789Z,3.00
2018-06-21T16:49:10.370Z,3.13
2018-06-21T16:51:37.904Z,2.47
2018-06-21T16:54:05.532Z,2.50
2018-06-21T16:56:33.173Z,2.47
2018-06-21T16:59:00.739Z,2.80
2018-06-21T17:01:28.322Z,3.57
2018-06-21T17:03:55.881Z,3.87
2018-06-21T17:06:23.474Z,3.80
2018-06-21T17:08:53.782Z,3.40
2018-06-21T17:11:22.113Z,3.50
2018-06-21T17:13:49.666Z,3.30
2018-06-21T17:16:17.184Z,3.30
2018-06-21T17:18:44.713Z,3.40
2018-06-21T17:21:12.297Z,2.80
2018-06-21T17:23:39.859Z,2.70
2018-06-21T17:26:07.495Z,2.80
2018-06-21T17:28:35.009Z,2.75
2018-06-21T17:31:02.565Z,2.77
2018-06-21T17:33:30.159Z,2.62
2018-06-21T17:35:57.611Z,2.98
2018-06-21T17:38:25.117Z,2.55
2018-06-21T17:40:52.704Z,2.65
2018-06-21T17:43:20.294Z,2.97
2018-06-21T17:45:47.752Z,2.75
2018-06-21T17:48:15.234Z,3.00
2018-06-21T17:50:42.921Z,2.58
2018-06-21T17:53:10.806Z,2.98
2018-06-21T17:55:38.383Z,2.87
2018-06-21T17:58:06.072Z,2.90
2018-06-21T18:00:33.579Z,2.85
2018-06-21T18:03:01.121Z,2.92
2018-06-21T18:05:28.668Z,2.67
2018-06-21T18:07:56.224Z,1.90
2018-06-21T18:10:23.795Z,2.60
2018-06-21T18:12:51.345Z,2.30
2018-06-21T18:15:18.914Z,2.30
2018-06-21T18:17:46.491Z,2.65
2018-06-21T18:20:24.357Z,2.42
2018-06-21T18:22:51.943Z,2.27
2018-06-21T18:25:19.478Z,1.87
2018-06-21T18:27:47.089Z,2.30
2018-06-21T18:30:14.634Z,2.08
2018-06-21T18:32:42.215Z,2.20
2018-06-21T18:35:09.776Z,2.25
2018-06-21T18:37:37.362Z,1.72
2018-06-21T18:40:05.028Z,1.70
2018-06-21T18:42:32.569Z,2.20
2018-06-21T18:45:00.164Z,1.80
2018-06-21T18:47:27.762Z,2.10
2018-06-21T18:49:55.321Z,1.95
2018-06-21T18:52:22.881Z,2.40
2018-06-21T18:54:50.406Z,1.75
2018-06-21T18:57:17.975Z,2.30
2018-06-21T18:59:45.552Z,1.72
2018-06-21T19:02:13.126Z,2.22
2018-06-21T19:04:40.634Z,1.80
2018-06-21T19:07:13.822Z,2.33
2018-06-21T19:09:47.166Z,1.92
2018-06-21T19:12:14.877Z,1.90
2018-06-21T19:14:42.459Z,1.90
2018-06-21T19:17:10.050Z,1.65
2018-06-21T19:19:38.368Z,2.20
2018-06-21T19:22:05.963Z,2.08
2018-06-21T19:24:33.545Z,1.92
2018-06-21T19:27:01.199Z,1.80
2018-06-21T19:29:28.797Z,2.02
2018-06-21T19:31:56.347Z,1.92
2018-06-21T19:34:23.862Z,2.05
2018-06-21T19:36:51.447Z,1.70
2018-06-21T19:39:18.995Z,1.92
2018-06-21T19:41:46.590Z,1.70
2018-06-21T19:44:14.112Z,1.60
2018-06-21T19:46:41.663Z,2.00
2018-06-21T19:49:09.207Z,1.65
2018-06-21T19:51:36.769Z,1.80
2018-06-21T19:54:04.393Z,1.70
2018-06-21T19:56:31.943Z,2.08
2018-06-21T19:58:59.531Z,1.50
2018-06-21T20:01:27.138Z,1.60
2018-06-21T20:03:54.762Z,2.15
2018-06-21T20:06:22.428Z,1.80
2018-06-21T20:08:50.108Z,1.50
2018-06-21T20:11:23.198Z,2.00
2018-06-21T20:13:51.679Z,1.80
2018-06-21T20:16:20.131Z,1.82
2018-06-21T20:18:47.931Z,2.12
2018-06-21T20:21:16.606Z,1.72
2018-06-21T20:23:46.090Z,2.17
2018-06-21T20:26:14.083Z,1.65
2018-06-21T20:28:42.019Z,1.45
2018-06-21T20:31:10.831Z,2.30
2018-06-21T20:33:38.873Z,2.37
2018-06-21T20:36:06.369Z,1.98
2018-06-21T20:38:33.967Z,1.82
2018-06-21T20:41:01.499Z,1.57
2018-06-21T20:43:29.200Z,2.00
2018-06-21T20:45:56.780Z,2.00
2018-06-21T20:48:24.349Z,1.50
2018-06-21T20:50:51.866Z,1.80
2018-06-21T20:53:19.437Z,1.80
2018-06-21T20:55:46.989Z,1.90
2018-06-21T20:58:14.545Z,1.80
2018-06-21T21:00:42.142Z,1.92
2018-06-21T21:03:09.892Z,1.98
2018-06-21T21:05:37.354Z,1.90
2018-06-21T21:08:04.815Z,1.92
2018-06-21T21:10:32.254Z,2.25
2018-06-21T21:12:59.710Z,2.15
2018-06-21T21:15:27.247Z,1.90
2018-06-21T21:17:54.790Z,1.87
2018-06-21T21:20:22.316Z,2.15
2018-06-21T21:22:49.879Z,2.02
2018-06-21T21:25:17.390Z,2.15
2018-06-21T21:27:44.901Z,2.50
2018-06-21T21:30:12.379Z,2.35
2018-06-21T21:32:39.875Z,2.10
2018-06-21T21:35:07.390Z,2.27
2018-06-21T21:37:34.983Z,1.52
2018-06-21T21:40:04.565Z,2.55
2018-06-21T21:42:33.234Z,3.60
2018-06-21T21:45:00.706Z,2.12
2018-06-21T21:47:28.225Z,2.25
2018-06-21T21:49:55.884Z,2.12
2018-06-21T21:52:23.494Z,1.72
2018-06-21T21:54:51.074Z,1.95
2018-06-21T21:57:18.771Z,2.00
2018-06-21T21:59:46.677Z,2.42
2018-06-21T22:02:14.600Z,2.35
2018-06-21T22:04:42.310Z,1.82
2018-06-21T22:07:09.791Z,2.50
2018-06-21T22:09:37.325Z,1.90
2018-06-21T22:12:05.016Z,2.37
2018-06-21T22:14:32.514Z,2.10
2018-06-21T22:17:00.060Z,2.50
2018-06-21T22:19:27.533Z,2.05
2018-06-21T22:21:55.059Z,2.05
2018-06-21T22:24:22.608Z,2.35
2018-06-21T22:26:50.110Z,1.60
2018-06-21T22:29:17.623Z,1.35
2018-06-21T22:31:45.142Z,1.50
2018-06-21T22:34:12.631Z,1.95
2018-06-21T22:36:40.286Z,2.15
2018-06-21T22:39:10.058Z,2.00
2018-06-21T22:41:37.843Z,2.33
2018-06-21T22:44:05.394Z,2.27
2018-06-21T22:46:32.867Z,2.25
2018-06-21T22:49:00.344Z,2.70
2018-06-21T22:51:28.686Z,1.80
2018-06-21T22:53:56.207Z,1.87
2018-06-21T22:56:24.102Z,2.17
2018-06-21T22:58:51.633Z,2.10
2018-06-21T23:01:19.211Z,2.02
2018-06-21T23:03:47.038Z,1.80
2018-06-21T23:06:16.359Z,1.60
2018-06-21T23:08:43.893Z,2.95
2018-06-21T23:11:11.431Z,2.50
2018-06-21T23:13:38.970Z,2.20
2018-06-21T23:16:06.625Z,2.05
2018-06-21T23:18:48.251Z,2.30
2018-06-21T23:21:15.794Z,2.70
2018-06-21T23:23:43.295Z,2.72
2018-06-21T23:26:11.431Z,3.60
2018-06-21T23:28:38.918Z,2.20
2018-06-21T23:31:06.505Z,2.02
2018-06-21T23:33:38.656Z,2.10
2018-06-21T23:36:11.053Z,2.10
2018-06-21T23:38:38.620Z,2.20
2018-06-21T23:41:08.205Z,2.20
2018-06-21T23:43:39.638Z,2.10
2018-06-21T23:46:11.724Z,2.45
2018-06-21T23:48:41.850Z,2.15
2018-06-21T23:51:13.547Z,2.20
2018-06-21T23:53:41.090Z,2.60
2018-06-21T23:56:08.597Z,2.67
2018-06-21T23:58:38.013Z,3.00
